TimeCDT,TemperatureF,Dew PointF,Humidity,Sea Level PressureIn,VisibilityMPH,Wind Direction,Wind SpeedMPH,Gust SpeedMPH,PrecipitationIn,Events,Conditions,WindDirDegrees,DateUTC
12:53 AM,42.1,32.0,67,30.14,10.0,West,9.2,-,N/A,,Clear,270,2013-11-02 05:53:00
1:53 AM,41.0,32.0,70,30.14,10.0,WNW,11.5,-,N/A,,Clear,300,2013-11-02 06:53:00
2:53 AM,41.0,32.0,70,30.15,10.0,NW,11.5,-,N/A,,Clear,310,2013-11-02 07:53:00
3:53 AM,39.0,30.9,73,30.17,10.0,WNW,9.2,-,N/A,,Clear,300,2013-11-02 08:53:00
4:53 AM,39.0,30.9,73,30.18,10.0,West,10.4,-,N/A,,Clear,280,2013-11-02 09:53:00
5:53 AM,37.9,30.0,73,30.21,10.0,WNW,10.4,-,N/A,,Clear,290,2013-11-02 10:53:00
6:53 AM,37.0,28.9,73,30.24,10.0,WNW,9.2,-,N/A,,Clear,300,2013-11-02 11:53:00
7:53 AM,36.0,28.0,73,30.26,10.0,West,9.2,-,N/A,,Clear,280,2013-11-02 12:53:00
8:53 AM,39.0,30.0,70,30.27,10.0,NW,4.6,-,N/A,,Clear,320,2013-11-02 13:53:00
9:53 AM,45.0,30.9,58,30.30,10.0,WNW,9.2,-,N/A,,Clear,300,2013-11-02 14:53:00
10:53 AM,48.9,30.9,50,30.30,10.0,NW,11.5,-,N/A,,Clear,310,2013-11-02 15:53:00
11:53 AM,54.0,32.0,43,30.30,10.0,NW,8.1,-,N/A,,Clear,310,2013-11-02 16:53:00
12:53 PM,57.0,28.9,34,30.28,10.0,WNW,10.4,-,N/A,,Clear,300,2013-11-02 17:53:00
1:53 PM,59.0,28.9,32,30.25,10.0,WNW,8.1,-,N/A,,Clear,300,2013-11-02 18:53:00
2:53 PM,61.0,27.0,27,30.22,10.0,Variable,4.6,-,N/A,,Clear,0,2013-11-02 19:53:00
3:53 PM,61.0,26.1,26,30.19,10.0,NW,3.5,-,N/A,,Clear,310,2013-11-02 20:53:00
4:53 PM,60.1,25.0,26,30.18,10.0,Calm,Calm,-,N/A,,Clear,0,2013-11-02 21:53:00
5:53 PM,57.0,28.9,34,30.17,10.0,SSE,6.9,-,N/A,,Clear,150,2013-11-02 22:53:00
6:53 PM,50.0,30.0,46,30.17,10.0,SSE,6.9,-,N/A,,Clear,150,2013-11-02 23:53:00
7:53 PM,48.9,30.0,48,30.16,10.0,SSE,8.1,-,N/A,,Clear,150,2013-11-03 00:53:00
8:53 PM,43.0,32.0,65,30.16,10.0,SSE,6.9,-,N/A,,Clear,150,2013-11-03 01:53:00
9:53 PM,45.0,32.0,60,30.14,10.0,SSE,10.4,-,N/A,,Clear,150,2013-11-03 02:53:00
10:53 PM,43.0,32.0,65,30.13,10.0,SSE,9.2,-,N/A,,Clear,160,2013-11-03 03:53:00
11:53 PM,44.1,32.0,63,30.11,10.0,SSE,9.2,-,N/A,,Clear,160,2013-11-03 04:53:00